Terminal Aerodrome Forecast
Issued by NWS Charleston, WV

Home | Current Version | Previous Version | Text Only | Print | Product List | Glossary On
Versions: 1 2 3 4 5 6 7 8 9 10 11 12 13 14 15 16 17 18 19 20 21 22 23 24 25 26 27 28 29
000
FTUS41 KRLX 160900 AAA
TAFEKN
TAF AMD
KEKN 160902Z 1609/1706 28009KT 6SM BR BKN015 BKN025
      TEMPO 1609/1612 4SM -RA SCT012
     FM161300 31006KT 6SM BR OVC012
     FM161500 VRB03KT P6SM BKN015
     FM161800 33005KT P6SM BKN035
     FM162100 31004KT P6SM SCT040=

USA.gov is the U.S. government's official web portal to all federal, state and local government web resources and services.